Magnolia State — KGNQ — position and weather

sailwx.info

Track history (hours):
 
Tides and Currents Weather Stations Pressure Air Temp Water Temp Dewpoint Dewpoint Depression Visibility Wind Speed Wind Dir Waves Ship Positions

Magnolia State

Owner: Crowley Petroleum Services, Inc., Jacksonville, FL. More information available from US FCC via Universal Licensing System and Coast Guard Vessel Documentation Center.

Last reported at 2017-Dec-15 00:57 UTC. Time now 2017-Dec-16 07:09 UTC.
Position N 29°14' W 094°40'.

Length 186 m; draft 8 m.

Type: Tanker. MMSI: 338302000.

Date/timePositionNaut miles runAvg speedWind from/ knotsBaromVisibWave heightAir tempDewpointWater temp
2017-Dec-15 00:57N 29°14' W 094°40'0 0.0
2017-Dec-15 00:27N 29°14' W 094°40'0 0.0
2017-Dec-14 16:15N 29°14' W 094°40'0 0.0
2017-Dec-14 15:57N 29°14' W 094°40'0 0.0
2017-Dec-14 09:36N 29°14' W 094°40'0 0.1
2017-Dec-14 09:06N 29°14' W 094°40'0 0.0
2017-Dec-14 06:18N 29°14' W 094°40'0 0.0
2017-Dec-13 15:35N 29°14' W 094°40'0 4.1
2017-Dec-13 15:29N 29°15' W 094°41'51 9.1
2017-Dec-13 09:52N 29°45' W 093°53'3 9.4
2017-Dec-13 09:30N 29°47' W 093°57'12 6.8
2017-Dec-13 07:45N 29°58' W 093°51'7 0.2
2017-Dec-11 08:44N 30°00' W 093°59'0 0.4
2017-Dec-11 08:28N 30°01' W 093°59'2 4.1
2017-Dec-11 08:00N 29°60' W 093°57'4 7.2
2017-Dec-11 07:30N 29°59' W 093°53'3 5.5
2017-Dec-11 07:00N 29°56' W 093°52'4 7.9
2017-Dec-11 06:30N 29°53' W 093°55'4 7.4
2017-Dec-11 06:00N 29°50' W 093°57'4 7.5
2017-Dec-11 05:30N 29°46' W 093°56'4 8.5
2017-Dec-11 05:00N 29°44' W 093°52'  
2017-Dec-08 01:51N 27°34' W 096°28'3 8.2
2017-Dec-08 01:29N 27°34' W 096°31'4 8.5
2017-Dec-08 00:59N 27°35' W 096°36'510.7
2017-Dec-08 00:30N 27°37' W 096°41'611.3
2017-Dec-08 00:00N 27°40' W 096°47'612.2
2017-Dec-07 23:30N 27°43' W 096°52'611.3
2017-Dec-07 23:00N 27°47' W 096°57'510.4
2017-Dec-07 22:30N 27°50' W 097°02'5 9.4
2017-Dec-07 22:00N 27°50' W 097°08'510.5
2017-Dec-07 21:29N 27°49' W 097°13'611.1
2017-Dec-07 20:59N 27°49' W 097°20'4 7.7
2017-Dec-07 20:29N 27°49' W 097°24'0 0.0
2017-Dec-07 19:59N 27°49' W 097°24'  
Track history (hours):
 
Tides and Currents Weather Stations Pressure Air Temp Water Temp Dewpoint Dewpoint Depression Visibility Wind Speed Wind Dir Waves Ship Positions

Magnolia State

Owner: Crowley Petroleum Services, Inc., Jacksonville, FL. More information available from US FCC via Universal Licensing System and Coast Guard Vessel Documentation Center.

Last reported at 2017-Dec-15 00:57 UTC. Time now 2017-Dec-16 07:09 UTC.
Position N 29°14' W 094°40'.

Length 186 m; draft 8 m.

Type: Tanker. MMSI: 338302000.

Date/timePositionNaut miles runAvg speedWind from/ knotsBaromVisibWave heightAir tempDewpointWater temp
2017-Dec-15 00:57N 29°14' W 094°40'0 0.0
2017-Dec-15 00:27N 29°14' W 094°40'0 0.0
2017-Dec-14 16:15N 29°14' W 094°40'0 0.0
2017-Dec-14 15:57N 29°14' W 094°40'0 0.0
2017-Dec-14 09:36N 29°14' W 094°40'0 0.1
2017-Dec-14 09:06N 29°14' W 094°40'0 0.0
2017-Dec-14 06:18N 29°14' W 094°40'0 0.0
2017-Dec-13 15:35N 29°14' W 094°40'0 4.1
2017-Dec-13 15:29N 29°15' W 094°41'51 9.1
2017-Dec-13 09:52N 29°45' W 093°53'3 9.4
2017-Dec-13 09:30N 29°47' W 093°57'12 6.8
2017-Dec-13 07:45N 29°58' W 093°51'7 0.2
2017-Dec-11 08:44N 30°00' W 093°59'0 0.4
2017-Dec-11 08:28N 30°01' W 093°59'2 4.1
2017-Dec-11 08:00N 29°60' W 093°57'4 7.2
2017-Dec-11 07:30N 29°59' W 093°53'3 5.5
2017-Dec-11 07:00N 29°56' W 093°52'4 7.9
2017-Dec-11 06:30N 29°53' W 093°55'4 7.4
2017-Dec-11 06:00N 29°50' W 093°57'4 7.5
2017-Dec-11 05:30N 29°46' W 093°56'4 8.5
2017-Dec-11 05:00N 29°44' W 093°52'  
2017-Dec-08 01:51N 27°34' W 096°28'3 8.2
2017-Dec-08 01:29N 27°34' W 096°31'4 8.5
2017-Dec-08 00:59N 27°35' W 096°36'510.7
2017-Dec-08 00:30N 27°37' W 096°41'611.3
2017-Dec-08 00:00N 27°40' W 096°47'612.2
2017-Dec-07 23:30N 27°43' W 096°52'611.3
2017-Dec-07 23:00N 27°47' W 096°57'510.4
2017-Dec-07 22:30N 27°50' W 097°02'5 9.4
2017-Dec-07 22:00N 27°50' W 097°08'510.5
2017-Dec-07 21:29N 27°49' W 097°13'611.1
2017-Dec-07 20:59N 27°49' W 097°20'4 7.7
2017-Dec-07 20:29N 27°49' W 097°24'0 0.0
2017-Dec-07 19:59N 27°49' W 097°24'  

Dump ship's entire track history